M/V Manukai — WRGD — position and weather

sailwx.info

Track history (hours):
 
Tides and Currents Weather Stations Pressure Air Temp Water Temp Dewpoint Dewpoint Depression Visibility Wind Speed Wind Dir Waves Ship Positions

M/V Manukai

More information available from US FCC via Universal Licensing System and Coast Guard Vessel Documentation Center.

Last reported at 2014-Jul-23 01:29 UTC. Time now 2014-Jul-23 01:44 UTC.
Position N 31°23' E 121°35'.

Type: Ship (hazmat cat A). MMSI: 369296000.

Date/timePositionNaut miles runAvg speedWind from/ knotsBaromVisibWave heightAir tempDewpointWater temp
2014-Jul-23 01:29N 31°23' E 121°35'0 0.0
2014-Jul-23 00:23N 31°23' E 121°35'0 0.0
2014-Jul-22 23:33N 31°23' E 121°35'0 0.0
2014-Jul-22 22:33N 31°23' E 121°35'0 0.0
2014-Jul-22 21:29N 31°23' E 121°35'0 0.1
2014-Jul-22 20:29N 31°23' E 121°34'0 0.0
2014-Jul-22 19:23N 31°23' E 121°35'0 0.0
2014-Jul-22 18:24N 31°23' E 121°35'0 0.0
2014-Jul-22 17:24N 31°23' E 121°35'0 0.0
2014-Jul-22 16:26N 31°23' E 121°35'1 1.0
2014-Jul-22 15:33N 31°23' E 121°36'4 4.2
2014-Jul-22 14:33N 31°21' E 121°40'2110.6
2014-Jul-22 12:33N 31°14' E 122°04'1111.4
2014-Jul-22 11:33N 31°08' E 122°15'60 5.7
2014-Jul-22 01:09N 30°48' E 123°20'6322.0
2014-Jul-21 22:17N 29°52' E 122°46'1520.6
2014-Jul-21 21:33N 29°40' E 122°36'1717.1
2014-Jul-21 20:33N 29°46' E 122°18'312.6
2014-Jul-21 20:18N 29°48' E 122°15'912.5
2014-Jul-21 19:33N 29°55' E 122°08'1312.9
2014-Jul-21 18:33N 29°57' E 121°53'3 2.6
2014-Jul-21 17:33N 29°57' E 121°50'0 0.0
2014-Jul-21 16:29N 29°57' E 121°50'0 0.0
2014-Jul-21 15:33N 29°57' E 121°50'0 0.0
2014-Jul-21 14:32N 29°57' E 121°50'0 0.0
2014-Jul-21 13:28N 29°57' E 121°50'0 0.0
2014-Jul-21 12:28N 29°57' E 121°50'0 0.0
2014-Jul-21 11:28N 29°57' E 121°50'1 0.6
2014-Jul-21 10:34N 29°57' E 121°50'1110.7
2014-Jul-21 09:33N 29°56' E 122°03'1212.3
2014-Jul-21 08:33N 29°49' E 122°14'1212.3
2014-Jul-21 07:33N 29°43' E 122°27'1313.1
2014-Jul-21 06:32N 29°40' E 122°42'34619.8
2014-Jul-20 13:05N 24°43' E 119°21'1121.7
2014-Jul-20 12:33N 24°38' E 119°10'2221.4
2014-Jul-20 11:31N 24°29' E 118°48'2021.0
2014-Jul-20 10:33N 24°20' E 118°28'1716.5
2014-Jul-20 09:33N 24°21' E 118°10'10 9.8
2014-Jul-20 08:33N 24°29' E 118°04'2 2.2
2014-Jul-20 07:33N 24°31' E 118°05'0 0.0
2014-Jul-20 06:29N 24°31' E 118°05'0 0.0
2014-Jul-20 05:23N 24°31' E 118°05'0 0.0
2014-Jul-20 04:29N 24°31' E 118°05'0 0.0
2014-Jul-20 03:32N 24°31' E 118°05'0 0.0
2014-Jul-20 02:33N 24°31' E 118°05'0 0.0
2014-Jul-20 01:33N 24°31' E 118°05'0 0.0
2014-Jul-20 00:30N 24°31' E 118°05'3 3.0
2014-Jul-19 23:33N 24°28' E 118°04'1010.2
2014-Jul-19 22:33N 24°20' E 118°10'1514.3
2014-Jul-19 21:29N 24°09' E 118°22'12421.0
2014-Jul-19 15:33N 22°36' E 119°53'2019.5
2014-Jul-19 14:32N 22°21' E 120°07'  
2014-Jul-14 12:00N 15°24' E 151°48'695115.8 100 / 131011.010.8 1.026.024.630.2
2014-Jul-14 06:00N 17°54' E 163°36'   080 / 131011.510.8 1.030.025.629.7
Track history (hours):
 
Tides and Currents Weather Stations Pressure Air Temp Water Temp Dewpoint Dewpoint Depression Visibility Wind Speed Wind Dir Waves Ship Positions

M/V Manukai

More information available from US FCC via Universal Licensing System and Coast Guard Vessel Documentation Center.

Last reported at 2014-Jul-23 01:29 UTC. Time now 2014-Jul-23 01:44 UTC.
Position N 31°23' E 121°35'.

Type: Ship (hazmat cat A). MMSI: 369296000.

Date/timePositionNaut miles runAvg speedWind from/ knotsBaromVisibWave heightAir tempDewpointWater temp
2014-Jul-23 01:29N 31°23' E 121°35'0 0.0
2014-Jul-23 00:23N 31°23' E 121°35'0 0.0
2014-Jul-22 23:33N 31°23' E 121°35'0 0.0
2014-Jul-22 22:33N 31°23' E 121°35'0 0.0
2014-Jul-22 21:29N 31°23' E 121°35'0 0.1
2014-Jul-22 20:29N 31°23' E 121°34'0 0.0
2014-Jul-22 19:23N 31°23' E 121°35'0 0.0
2014-Jul-22 18:24N 31°23' E 121°35'0 0.0
2014-Jul-22 17:24N 31°23' E 121°35'0 0.0
2014-Jul-22 16:26N 31°23' E 121°35'1 1.0
2014-Jul-22 15:33N 31°23' E 121°36'4 4.2
2014-Jul-22 14:33N 31°21' E 121°40'2110.6
2014-Jul-22 12:33N 31°14' E 122°04'1111.4
2014-Jul-22 11:33N 31°08' E 122°15'60 5.7
2014-Jul-22 01:09N 30°48' E 123°20'6322.0
2014-Jul-21 22:17N 29°52' E 122°46'1520.6
2014-Jul-21 21:33N 29°40' E 122°36'1717.1
2014-Jul-21 20:33N 29°46' E 122°18'312.6
2014-Jul-21 20:18N 29°48' E 122°15'912.5
2014-Jul-21 19:33N 29°55' E 122°08'1312.9
2014-Jul-21 18:33N 29°57' E 121°53'3 2.6
2014-Jul-21 17:33N 29°57' E 121°50'0 0.0
2014-Jul-21 16:29N 29°57' E 121°50'0 0.0
2014-Jul-21 15:33N 29°57' E 121°50'0 0.0
2014-Jul-21 14:32N 29°57' E 121°50'0 0.0
2014-Jul-21 13:28N 29°57' E 121°50'0 0.0
2014-Jul-21 12:28N 29°57' E 121°50'0 0.0
2014-Jul-21 11:28N 29°57' E 121°50'1 0.6
2014-Jul-21 10:34N 29°57' E 121°50'1110.7
2014-Jul-21 09:33N 29°56' E 122°03'1212.3
2014-Jul-21 08:33N 29°49' E 122°14'1212.3
2014-Jul-21 07:33N 29°43' E 122°27'1313.1
2014-Jul-21 06:32N 29°40' E 122°42'34619.8
2014-Jul-20 13:05N 24°43' E 119°21'1121.7
2014-Jul-20 12:33N 24°38' E 119°10'2221.4
2014-Jul-20 11:31N 24°29' E 118°48'2021.0
2014-Jul-20 10:33N 24°20' E 118°28'1716.5
2014-Jul-20 09:33N 24°21' E 118°10'10 9.8
2014-Jul-20 08:33N 24°29' E 118°04'2 2.2
2014-Jul-20 07:33N 24°31' E 118°05'0 0.0
2014-Jul-20 06:29N 24°31' E 118°05'0 0.0
2014-Jul-20 05:23N 24°31' E 118°05'0 0.0
2014-Jul-20 04:29N 24°31' E 118°05'0 0.0
2014-Jul-20 03:32N 24°31' E 118°05'0 0.0
2014-Jul-20 02:33N 24°31' E 118°05'0 0.0
2014-Jul-20 01:33N 24°31' E 118°05'0 0.0
2014-Jul-20 00:30N 24°31' E 118°05'3 3.0
2014-Jul-19 23:33N 24°28' E 118°04'1010.2
2014-Jul-19 22:33N 24°20' E 118°10'1514.3
2014-Jul-19 21:29N 24°09' E 118°22'12421.0
2014-Jul-19 15:33N 22°36' E 119°53'2019.5
2014-Jul-19 14:32N 22°21' E 120°07'  
2014-Jul-14 12:00N 15°24' E 151°48'695115.8 100 / 131011.010.8 1.026.024.630.2
2014-Jul-14 06:00N 17°54' E 163°36'   080 / 131011.510.8 1.030.025.629.7

Dump ship's entire track history